Airfield :
LOGIN :

Register | Disclaimer

   EN    FR    IT 

 










Legend :    VFR   Marginal VFR   IFR   Intensive IFR   Very Intensive IFR
Visi :
Ceiling :
>= 8 km
>= 3000ft
5 to 8 km
1000 to 3000 ft
1500m to 5 km
500 to 1000 ft
800 to 1500m
200 to 500 ft
< 800m
< 200 ft
Symbols :   Thunderstorms  Fog  Heavy snow  Heavy precipitations  Wind > 20 kt
SIGMETs :     Misc.  Thunderstorms  Icing  Turbulence  Mountain Waves  Volcanic Ashes







- Airport Elevation : 2001 ft
- IATA code : MAD


LEMD - Madrid

CURRENT METAR :
  • 152300Z 36002KT 9999 FEW038 12/10 Q1013 NOSIG

EXPIRED METARs :
  • 152230Z VRB02KT 9999 FEW025 SCT035 12/11 Q1013 NOSIG
  • 152200Z 35005KT 9999 FEW025 SCT035 13/11 Q1013 NOSIG
  • 152130Z 35003KT 320V020 9999 SCT025 13/11 Q1013 NOSIG
  • 152100Z VRB01KT 9999 SCT025 13/11 Q1013 NOSIG
  • 152030Z VRB01KT 9999 SCT025 13/10 Q1013 NOSIG

TAF TAF LEMD
Valid from the 16 at 00:00 until the 17 at 06:00 UTC


152300Z 1600/1706 VRB05KT 9999 SCT030 TX22/1615Z TN07/1706Z
PROB30
TEMPO 1600/1605 4000 DZ BR BKN014
No reported NOTAMs for that airfield.



MET'MAP, your aeronautical weather chart ! - Copyright ORBIFLY December 2007 - Disclaimer

ORBIFLY MET'MAP TEAM :

Programming & Development : Alexandra Zaïnal
Concept & Development : Baudouin d'Aumeries
Co-Development & Prog : Marc-Olivier Méhu
Technical & hardware support : Manuel Goepfert

Contact : metmap@orbifly.com




SOURCES & CREDITS :

   NOAA